Terminal Aerodrome Forecast
Issued by NWS

Home | Current Version | Previous Version | Text Only | Print | Product List | Glossary On
Versions: 1 2 3 4 5 6 7 8 9 10 11 12 13 14 15 16 17 18 19 20 21 22 23 24 25 26 27 28
000
FTUS46 KEKA 160900 CCB
TAFCEC
TAF COR
KCEC 160940Z 1609/1706 36004KT P6SM SCT250
      TEMPO 1609/1613 35010G18KT 4SM BR SCT011
     FM161300 36006KT P6SM SCT005
     FM161900 33014G22KT P6SM SKC
     FM170300 33007KT P6SM OVC008=

USA.gov is the U.S. government's official web portal to all federal, state and local government web resources and services.